Main page
METAR-TAF:

METAR-TAF

Airports :

Santa Maria Airport

Santa Maria, Rio Grande do Sul, Brazil

latitude: 29-43S, longitude: 053-42W, elevation: 85 m

Current weather observation

The report was made 28 minutes ago, at 00:00 UTC
Wind 2 kt from the North/Northeast
Temperature 22°C
Humidity 94%
Pressure 1008 hPa
Visibility 10 km or more
Scattered clouds at a height of 3000 ft

METAR: SBSM 190000Z 03002KT 9999 SCT030 22/21 Q1008

Time: 21:28 (00:28 UTC)

Forecast

The report was made 9 hours and 28 minutes ago, at 15:00 UTC
Forecast valid from 18 at 18 UTC to 19 at 06 UTC
Wind 7 kt from the Northwest
Visibility 10 km or more
Scattered clouds at a height of 3000 ft
Probability 40% :
Temporary
from 18 at 18 UTC to 18 at 20 UTC
Broken clouds at a height of 3000 ft
Few clouds at a height of 3500 ft, Towering cumulus.

TAF: SBSM 181500Z 1818/1906 32007KT 9999 SCT030 TX27/1818Z TN22/1906Z PROB40 TEMPO 1818/1820 BKN030 FEW035TCU RMK PDJ

Weather observations and forecasts of more than 4000 airports (METAR and TAF reports).

The available stations are represented by yellow and red dots on the map.

Hover mouse over dot to see the name of the station.

Then click to see weather observations and forecasts.

To change the map : click on the green buttons with a black cross to zoom in, on the green button with a dash to zoom out, or on the green arrows for adjacent maps.


METAR-TAF: